sensor_id;sensor_type;location;lat;lon;timestamp;temperature;humidity
27848;DHT22;15212;48.830;8.730;2023-06-26T00:00:02;19.20;97.10
27848;DHT22;15212;48.830;8.730;2023-06-26T00:02:31;19.10;97.20
27848;DHT22;15212;48.830;8.730;2023-06-26T00:05:00;19.10;97.10
27848;DHT22;15212;48.830;8.730;2023-06-26T00:07:30;19.10;98.00
27848;DHT22;15212;48.830;8.730;2023-06-26T00:10:02;19.00;98.00
27848;DHT22;15212;48.830;8.730;2023-06-26T00:12:31;19.00;98.10
27848;DHT22;15212;48.830;8.730;2023-06-26T00:15:00;18.90;98.80
27848;DHT22;15212;48.830;8.730;2023-06-26T00:17:28;18.80;99.20
27848;DHT22;15212;48.830;8.730;2023-06-26T00:19:56;18.70;99.80
27848;DHT22;15212;48.830;8.730;2023-06-26T00:22:25;18.70;99.70
27848;DHT22;15212;48.830;8.730;2023-06-26T00:24:53;18.70;99.30
27848;DHT22;15212;48.830;8.730;2023-06-26T00:27:22;18.70;98.90
27848;DHT22;15212;48.830;8.730;2023-06-26T00:29:50;18.80;99.00
27848;DHT22;15212;48.830;8.730;2023-06-26T00:32:19;18.80;99.60
27848;DHT22;15212;48.830;8.730;2023-06-26T00:34:47;18.80;99.40
27848;DHT22;15212;48.830;8.730;2023-06-26T00:37:16;18.70;99.70
27848;DHT22;15212;48.830;8.730;2023-06-26T00:39:44;18.70;99.90
27848;DHT22;15212;48.830;8.730;2023-06-26T00:42:13;18.70;99.90
27848;DHT22;15212;48.830;8.730;2023-06-26T00:44:41;18.70;99.40
27848;DHT22;15212;48.830;8.730;2023-06-26T00:47:11;18.80;99.90
27848;DHT22;15212;48.830;8.730;2023-06-26T00:49:42;18.80;99.80
27848;DHT22;15212;48.830;8.730;2023-06-26T00:52:10;18.90;99.30
27848;DHT22;15212;48.830;8.730;2023-06-26T00:54:39;19.00;99.20
27848;DHT22;15212;48.830;8.730;2023-06-26T00:57:07;19.00;99.70
27848;DHT22;15212;48.830;8.730;2023-06-26T00:59:36;18.90;99.80
27848;DHT22;15212;48.830;8.730;2023-06-26T01:02:04;19.00;99.50
27848;DHT22;15212;48.830;8.730;2023-06-26T01:04:34;19.00;99.10
27848;DHT22;15212;48.830;8.730;2023-06-26T01:07:04;19.10;98.90
27848;DHT22;15212;48.830;8.730;2023-06-26T01:09:34;19.20;98.50
27848;DHT22;15212;48.830;8.730;2023-06-26T01:12:02;19.30;98.10
27848;DHT22;15212;48.830;8.730;2023-06-26T01:14:31;19.40;98.00
27848;DHT22;15212;48.830;8.730;2023-06-26T01:17:02;19.50;97.60
27848;DHT22;15212;48.830;8.730;2023-06-26T01:19:31;19.60;97.30
27848;DHT22;15212;48.830;8.730;2023-06-26T01:25:33;19.60;97.30
27848;DHT22;15212;48.830;8.730;2023-06-26T01:28:08;19.60;98.20
27848;DHT22;15212;48.830;8.730;2023-06-26T01:30:41;19.50;98.30
27848;DHT22;15212;48.830;8.730;2023-06-26T01:33:11;19.50;98.20
27848;DHT22;15212;48.830;8.730;2023-06-26T01:35:40;19.50;98.00
27848;DHT22;15212;48.830;8.730;2023-06-26T01:38:19;19.50;98.00
27848;DHT22;15212;48.830;8.730;2023-06-26T01:40:50;19.50;97.80
27848;DHT22;15212;48.830;8.730;2023-06-26T01:46:31;19.50;97.60
27848;DHT22;15212;48.830;8.730;2023-06-26T01:52:14;19.60;96.90
27848;DHT22;15212;48.830;8.730;2023-06-26T01:54:56;19.60;96.80
27848;DHT22;15212;48.830;8.730;2023-06-26T01:57:31;19.70;96.70
27848;DHT22;15212;48.830;8.730;2023-06-26T02:00:00;19.70;96.60
27848;DHT22;15212;48.830;8.730;2023-06-26T02:02:30;19.80;96.40
27848;DHT22;15212;48.830;8.730;2023-06-26T02:04:58;19.80;96.40
27848;DHT22;15212;48.830;8.730;2023-06-26T02:07:27;19.80;96.20
27848;DHT22;15212;48.830;8.730;2023-06-26T02:09:55;19.80;96.50
27848;DHT22;15212;48.830;8.730;2023-06-26T02:12:23;19.80;96.50
27848;DHT22;15212;48.830;8.730;2023-06-26T02:14:52;19.80;96.30
27848;DHT22;15212;48.830;8.730;2023-06-26T02:17:20;19.80;97.20
27848;DHT22;15212;48.830;8.730;2023-06-26T02:19:48;19.70;97.00
27848;DHT22;15212;48.830;8.730;2023-06-26T02:22:17;19.60;96.90
27848;DHT22;15212;48.830;8.730;2023-06-26T02:24:45;19.60;97.20
27848;DHT22;15212;48.830;8.730;2023-06-26T02:27:14;19.60;97.10
27848;DHT22;15212;48.830;8.730;2023-06-26T02:29:42;19.60;96.80
27848;DHT22;15212;48.830;8.730;2023-06-26T02:32:11;19.60;96.80
27848;DHT22;15212;48.830;8.730;2023-06-26T02:34:39;19.60;96.60
27848;DHT22;15212;48.830;8.730;2023-06-26T02:37:08;19.60;96.40
27848;DHT22;15212;48.830;8.730;2023-06-26T02:39:36;19.60;97.00
27848;DHT22;15212;48.830;8.730;2023-06-26T02:42:05;19.60;97.20
27848;DHT22;15212;48.830;8.730;2023-06-26T02:44:33;19.60;97.20
27848;DHT22;15212;48.830;8.730;2023-06-26T02:47:02;19.50;97.10
27848;DHT22;15212;48.830;8.730;2023-06-26T02:49:30;19.50;97.30
27848;DHT22;15212;48.830;8.730;2023-06-26T02:51:59;19.50;96.90
27848;DHT22;15212;48.830;8.730;2023-06-26T02:54:27;19.50;97.10
27848;DHT22;15212;48.830;8.730;2023-06-26T02:56:55;19.50;96.90
27848;DHT22;15212;48.830;8.730;2023-06-26T02:59:24;19.50;96.90
27848;DHT22;15212;48.830;8.730;2023-06-26T03:01:53;19.60;96.70
27848;DHT22;15212;48.830;8.730;2023-06-26T03:04:21;19.60;96.70
27848;DHT22;15212;48.830;8.730;2023-06-26T03:06:49;19.60;96.80
27848;DHT22;15212;48.830;8.730;2023-06-26T03:09:18;19.70;96.60
27848;DHT22;15212;48.830;8.730;2023-06-26T03:11:46;19.70;96.60
27848;DHT22;15212;48.830;8.730;2023-06-26T03:14:15;19.70;96.50
27848;DHT22;15212;48.830;8.730;2023-06-26T03:16:43;19.70;96.40
27848;DHT22;15212;48.830;8.730;2023-06-26T03:19:11;19.80;96.20
27848;DHT22;15212;48.830;8.730;2023-06-26T03:21:40;19.80;96.10
27848;DHT22;15212;48.830;8.730;2023-06-26T03:24:08;19.90;96.10
27848;DHT22;15212;48.830;8.730;2023-06-26T03:26:36;19.90;96.10
27848;DHT22;15212;48.830;8.730;2023-06-26T03:29:05;20.00;96.30
27848;DHT22;15212;48.830;8.730;2023-06-26T03:31:33;20.00;95.90
27848;DHT22;15212;48.830;8.730;2023-06-26T03:34:02;20.00;96.10
27848;DHT22;15212;48.830;8.730;2023-06-26T03:36:30;20.00;96.10
27848;DHT22;15212;48.830;8.730;2023-06-26T03:38:58;20.00;96.10
27848;DHT22;15212;48.830;8.730;2023-06-26T03:41:27;20.00;96.20
27848;DHT22;15212;48.830;8.730;2023-06-26T03:43:55;20.10;96.20
27848;DHT22;15212;48.830;8.730;2023-06-26T03:46:24;20.10;96.40
27848;DHT22;15212;48.830;8.730;2023-06-26T03:48:52;20.10;96.40
27848;DHT22;15212;48.830;8.730;2023-06-26T03:51:21;20.10;96.60
27848;DHT22;15212;48.830;8.730;2023-06-26T03:53:49;20.10;96.70
27848;DHT22;15212;48.830;8.730;2023-06-26T03:56:17;20.20;96.70
27848;DHT22;15212;48.830;8.730;2023-06-26T03:58:46;20.20;96.80
27848;DHT22;15212;48.830;8.730;2023-06-26T04:01:14;20.20;96.70
27848;DHT22;15212;48.830;8.730;2023-06-26T04:03:43;20.20;96.80
27848;DHT22;15212;48.830;8.730;2023-06-26T04:06:11;20.30;96.90
27848;DHT22;15212;48.830;8.730;2023-06-26T04:08:39;20.40;96.90
27848;DHT22;15212;48.830;8.730;2023-06-26T04:11:08;20.40;97.00
27848;DHT22;15212;48.830;8.730;2023-06-26T04:13:36;20.40;96.90
27848;DHT22;15212;48.830;8.730;2023-06-26T04:16:05;20.50;96.90
27848;DHT22;15212;48.830;8.730;2023-06-26T04:18:33;20.50;97.20
27848;DHT22;15212;48.830;8.730;2023-06-26T04:21:07;20.60;96.90
27848;DHT22;15212;48.830;8.730;2023-06-26T04:23:38;20.60;97.00
27848;DHT22;15212;48.830;8.730;2023-06-26T04:26:08;20.60;97.00
27848;DHT22;15212;48.830;8.730;2023-06-26T04:28:38;20.70;97.20
27848;DHT22;15212;48.830;8.730;2023-06-26T04:31:06;20.70;97.20
27848;DHT22;15212;48.830;8.730;2023-06-26T04:33:36;20.70;97.00
27848;DHT22;15212;48.830;8.730;2023-06-26T04:36:05;20.80;97.30
27848;DHT22;15212;48.830;8.730;2023-06-26T04:38:33;20.80;97.00
27848;DHT22;15212;48.830;8.730;2023-06-26T04:41:02;20.90;96.80
27848;DHT22;15212;48.830;8.730;2023-06-26T04:43:30;20.90;96.90
27848;DHT22;15212;48.830;8.730;2023-06-26T04:45:59;21.00;96.80
27848;DHT22;15212;48.830;8.730;2023-06-26T04:48:27;21.10;96.70
27848;DHT22;15212;48.830;8.730;2023-06-26T04:50:57;21.10;96.80
27848;DHT22;15212;48.830;8.730;2023-06-26T04:53:25;21.10;96.90
27848;DHT22;15212;48.830;8.730;2023-06-26T04:55:54;21.20;96.80
27848;DHT22;15212;48.830;8.730;2023-06-26T04:58:22;21.20;96.90
27848;DHT22;15212;48.830;8.730;2023-06-26T05:00:51;21.30;97.00
27848;DHT22;15212;48.830;8.730;2023-06-26T05:03:20;21.40;97.10
27848;DHT22;15212;48.830;8.730;2023-06-26T05:05:49;21.40;96.80
27848;DHT22;15212;48.830;8.730;2023-06-26T05:08:21;21.50;97.40
27848;DHT22;15212;48.830;8.730;2023-06-26T05:10:50;21.60;97.50
27848;DHT22;15212;48.830;8.730;2023-06-26T05:13:19;21.70;97.10
27848;DHT22;15212;48.830;8.730;2023-06-26T05:15:49;21.80;97.60
27848;DHT22;15212;48.830;8.730;2023-06-26T05:18:17;21.90;97.70
27848;DHT22;15212;48.830;8.730;2023-06-26T05:20:46;22.00;98.00
27848;DHT22;15212;48.830;8.730;2023-06-26T05:23:16;22.10;97.60
27848;DHT22;15212;48.830;8.730;2023-06-26T05:25:45;22.20;97.50
27848;DHT22;15212;48.830;8.730;2023-06-26T05:28:14;22.30;97.50
27848;DHT22;15212;48.830;8.730;2023-06-26T05:30:43;22.40;97.20
27848;DHT22;15212;48.830;8.730;2023-06-26T05:33:12;22.50;97.60
27848;DHT22;15212;48.830;8.730;2023-06-26T05:35:43;22.60;97.50
27848;DHT22;15212;48.830;8.730;2023-06-26T05:38:13;22.70;97.40
27848;DHT22;15212;48.830;8.730;2023-06-26T05:40:42;22.80;97.50
27848;DHT22;15212;48.830;8.730;2023-06-26T05:43:11;23.00;97.30
27848;DHT22;15212;48.830;8.730;2023-06-26T05:45:40;23.10;97.70
27848;DHT22;15212;48.830;8.730;2023-06-26T05:48:08;23.20;97.10
27848;DHT22;15212;48.830;8.730;2023-06-26T05:50:37;23.30;97.00
27848;DHT22;15212;48.830;8.730;2023-06-26T05:53:07;23.50;96.50
27848;DHT22;15212;48.830;8.730;2023-06-26T05:55:36;23.80;95.90
27848;DHT22;15212;48.830;8.730;2023-06-26T05:58:07;24.10;96.10
27848;DHT22;15212;48.830;8.730;2023-06-26T06:00:39;24.60;95.20
27848;DHT22;15212;48.830;8.730;2023-06-26T06:03:09;25.20;94.30
27848;DHT22;15212;48.830;8.730;2023-06-26T06:05:38;25.90;93.00
27848;DHT22;15212;48.830;8.730;2023-06-26T06:08:06;26.80;92.10
27848;DHT22;15212;48.830;8.730;2023-06-26T06:10:35;27.70;90.60
27848;DHT22;15212;48.830;8.730;2023-06-26T06:13:03;29.00;90.20
27848;DHT22;15212;48.830;8.730;2023-06-26T06:15:31;29.70;86.60
27848;DHT22;15212;48.830;8.730;2023-06-26T06:18:00;30.50;84.10
27848;DHT22;15212;48.830;8.730;2023-06-26T06:20:28;31.20;82.00
27848;DHT22;15212;48.830;8.730;2023-06-26T06:22:57;32.00;81.20
27848;DHT22;15212;48.830;8.730;2023-06-26T06:25:25;32.60;77.60
27848;DHT22;15212;48.830;8.730;2023-06-26T06:27:53;33.10;76.30
27848;DHT22;15212;48.830;8.730;2023-06-26T06:30:22;33.50;74.60
27848;DHT22;15212;48.830;8.730;2023-06-26T06:32:50;33.80;72.80
27848;DHT22;15212;48.830;8.730;2023-06-26T06:35:19;33.70;72.00
27848;DHT22;15212;48.830;8.730;2023-06-26T06:37:47;34.20;71.60
27848;DHT22;15212;48.830;8.730;2023-06-26T06:40:16;34.50;71.40
27848;DHT22;15212;48.830;8.730;2023-06-26T06:42:44;34.10;70.50
27848;DHT22;15212;48.830;8.730;2023-06-26T06:45:12;34.20;69.90
27848;DHT22;15212;48.830;8.730;2023-06-26T06:47:41;34.30;69.60
27848;DHT22;15212;48.830;8.730;2023-06-26T06:50:09;34.10;70.40
27848;DHT22;15212;48.830;8.730;2023-06-26T06:52:39;34.40;70.80
27848;DHT22;15212;48.830;8.730;2023-06-26T06:55:08;34.80;69.70
27848;DHT22;15212;48.830;8.730;2023-06-26T06:57:37;34.50;68.90
27848;DHT22;15212;48.830;8.730;2023-06-26T07:00:09;34.40;69.00
27848;DHT22;15212;48.830;8.730;2023-06-26T07:02:39;34.60;68.50
27848;DHT22;15212;48.830;8.730;2023-06-26T07:05:09;34.20;68.90
27848;DHT22;15212;48.830;8.730;2023-06-26T07:07:38;33.70;68.30
27848;DHT22;15212;48.830;8.730;2023-06-26T07:10:09;33.40;68.30
27848;DHT22;15212;48.830;8.730;2023-06-26T07:12:39;32.80;69.70
27848;DHT22;15212;48.830;8.730;2023-06-26T07:15:07;32.90;70.20
27848;DHT22;15212;48.830;8.730;2023-06-26T07:17:36;32.90;69.90
27848;DHT22;15212;48.830;8.730;2023-06-26T07:20:06;32.80;69.80
27848;DHT22;15212;48.830;8.730;2023-06-26T07:22:37;33.00;70.10
27848;DHT22;15212;48.830;8.730;2023-06-26T07:25:05;33.10;70.40
27848;DHT22;15212;48.830;8.730;2023-06-26T07:27:38;33.30;69.70
27848;DHT22;15212;48.830;8.730;2023-06-26T07:30:07;33.40;69.80
27848;DHT22;15212;48.830;8.730;2023-06-26T07:32:36;33.20;69.50
27848;DHT22;15212;48.830;8.730;2023-06-26T07:35:06;33.00;70.30
27848;DHT22;15212;48.830;8.730;2023-06-26T07:37:35;33.00;70.20
27848;DHT22;15212;48.830;8.730;2023-06-26T07:40:03;32.90;69.70
27848;DHT22;15212;48.830;8.730;2023-06-26T07:42:32;32.80;70.70
27848;DHT22;15212;48.830;8.730;2023-06-26T07:45:01;32.40;70.80
27848;DHT22;15212;48.830;8.730;2023-06-26T07:47:31;32.30;71.60
27848;DHT22;15212;48.830;8.730;2023-06-26T07:49:59;32.10;71.50
27848;DHT22;15212;48.830;8.730;2023-06-26T07:52:28;32.30;71.90
27848;DHT22;15212;48.830;8.730;2023-06-26T07:54:57;32.30;71.40
27848;DHT22;15212;48.830;8.730;2023-06-26T07:57:25;32.30;71.20
27848;DHT22;15212;48.830;8.730;2023-06-26T07:59:54;32.10;72.80
27848;DHT22;15212;48.830;8.730;2023-06-26T08:02:22;32.00;72.20
27848;DHT22;15212;48.830;8.730;2023-06-26T08:04:50;31.50;72.70
27848;DHT22;15212;48.830;8.730;2023-06-26T08:07:19;31.40;74.40
27848;DHT22;15212;48.830;8.730;2023-06-26T08:09:47;31.10;74.40
27848;DHT22;15212;48.830;8.730;2023-06-26T08:12:16;30.80;74.70
27848;DHT22;15212;48.830;8.730;2023-06-26T08:14:44;30.70;75.70
27848;DHT22;15212;48.830;8.730;2023-06-26T08:17:12;30.20;75.50
27848;DHT22;15212;48.830;8.730;2023-06-26T08:19:41;30.10;76.20
27848;DHT22;15212;48.830;8.730;2023-06-26T08:22:09;30.00;76.90
27848;DHT22;15212;48.830;8.730;2023-06-26T08:24:38;29.90;77.10
27848;DHT22;15212;48.830;8.730;2023-06-26T08:27:06;29.60;76.80
27848;DHT22;15212;48.830;8.730;2023-06-26T08:29:35;29.50;77.70
27848;DHT22;15212;48.830;8.730;2023-06-26T08:32:03;29.50;78.30
27848;DHT22;15212;48.830;8.730;2023-06-26T08:34:32;29.60;78.80
27848;DHT22;15212;48.830;8.730;2023-06-26T08:37:00;29.40;79.30
27848;DHT22;15212;48.830;8.730;2023-06-26T08:39:29;29.60;79.30
27848;DHT22;15212;48.830;8.730;2023-06-26T08:41:57;29.50;79.20
27848;DHT22;15212;48.830;8.730;2023-06-26T08:44:26;29.40;79.30
27848;DHT22;15212;48.830;8.730;2023-06-26T08:46:54;29.50;79.20
27848;DHT22;15212;48.830;8.730;2023-06-26T08:49:34;29.50;77.40
27848;DHT22;15212;48.830;8.730;2023-06-26T08:52:28;29.40;78.00
27848;DHT22;15212;48.830;8.730;2023-06-26T08:54:59;29.40;78.60
27848;DHT22;15212;48.830;8.730;2023-06-26T08:57:31;29.40;78.90
27848;DHT22;15212;48.830;8.730;2023-06-26T09:00:00;29.40;79.60
27848;DHT22;15212;48.830;8.730;2023-06-26T09:02:29;29.30;78.80
27848;DHT22;15212;48.830;8.730;2023-06-26T09:04:57;29.30;79.00
27848;DHT22;15212;48.830;8.730;2023-06-26T09:07:26;29.30;78.50
27848;DHT22;15212;48.830;8.730;2023-06-26T09:09:54;29.30;80.40
27848;DHT22;15212;48.830;8.730;2023-06-26T09:12:22;29.20;78.80
27848;DHT22;15212;48.830;8.730;2023-06-26T09:14:51;29.10;79.60
27848;DHT22;15212;48.830;8.730;2023-06-26T09:17:29;29.00;79.10
27848;DHT22;15212;48.830;8.730;2023-06-26T09:19:58;29.20;79.80
27848;DHT22;15212;48.830;8.730;2023-06-26T09:22:27;29.30;80.30
27848;DHT22;15212;48.830;8.730;2023-06-26T09:24:56;29.30;80.40
27848;DHT22;15212;48.830;8.730;2023-06-26T09:27:24;29.30;82.70
27848;DHT22;15212;48.830;8.730;2023-06-26T09:29:53;29.10;82.40
27848;DHT22;15212;48.830;8.730;2023-06-26T09:32:24;28.90;84.00
27848;DHT22;15212;48.830;8.730;2023-06-26T09:34:54;28.60;83.90
27848;DHT22;15212;48.830;8.730;2023-06-26T09:37:23;28.40;85.10
27848;DHT22;15212;48.830;8.730;2023-06-26T09:39:51;28.40;86.30
27848;DHT22;15212;48.830;8.730;2023-06-26T09:42:19;28.40;86.40
27848;DHT22;15212;48.830;8.730;2023-06-26T09:44:48;28.30;86.40
27848;DHT22;15212;48.830;8.730;2023-06-26T09:47:19;28.20;86.70
27848;DHT22;15212;48.830;8.730;2023-06-26T09:49:47;28.10;87.40
27848;DHT22;15212;48.830;8.730;2023-06-26T09:52:17;28.10;87.40
27848;DHT22;15212;48.830;8.730;2023-06-26T09:54:47;28.10;86.40
27848;DHT22;15212;48.830;8.730;2023-06-26T09:57:17;27.60;87.20
27848;DHT22;15212;48.830;8.730;2023-06-26T09:59:46;27.30;88.00
27848;DHT22;15212;48.830;8.730;2023-06-26T10:02:14;27.20;88.90
27848;DHT22;15212;48.830;8.730;2023-06-26T10:04:43;27.30;90.00
27848;DHT22;15212;48.830;8.730;2023-06-26T10:07:12;27.40;89.90
27848;DHT22;15212;48.830;8.730;2023-06-26T10:09:42;27.40;90.00
27848;DHT22;15212;48.830;8.730;2023-06-26T10:12:18;27.40;89.90
27848;DHT22;15212;48.830;8.730;2023-06-26T10:14:48;27.40;90.00
27848;DHT22;15212;48.830;8.730;2023-06-26T10:17:20;27.60;90.60
27848;DHT22;15212;48.830;8.730;2023-06-26T10:19:50;27.80;90.20
27848;DHT22;15212;48.830;8.730;2023-06-26T10:22:21;27.80;90.10
27848;DHT22;15212;48.830;8.730;2023-06-26T10:24:51;27.70;90.30
27848;DHT22;15212;48.830;8.730;2023-06-26T10:27:25;27.70;90.70
27848;DHT22;15212;48.830;8.730;2023-06-26T10:29:57;27.90;91.50
27848;DHT22;15212;48.830;8.730;2023-06-26T10:32:28;27.80;90.70
27848;DHT22;15212;48.830;8.730;2023-06-26T10:34:58;27.70;91.30
27848;DHT22;15212;48.830;8.730;2023-06-26T10:40:24;27.80;91.00
27848;DHT22;15212;48.830;8.730;2023-06-26T10:43:08;27.60;91.30
27848;DHT22;15212;48.830;8.730;2023-06-26T10:45:45;27.70;91.80
27848;DHT22;15212;48.830;8.730;2023-06-26T10:48:16;27.70;92.10
27848;DHT22;15212;48.830;8.730;2023-06-26T10:50:49;28.00;91.50
27848;DHT22;15212;48.830;8.730;2023-06-26T10:53:22;27.90;91.40
27848;DHT22;15212;48.830;8.730;2023-06-26T10:55:58;27.80;91.20
27848;DHT22;15212;48.830;8.730;2023-06-26T10:58:41;27.70;91.50
27848;DHT22;15212;48.830;8.730;2023-06-26T11:01:19;27.70;91.80
27848;DHT22;15212;48.830;8.730;2023-06-26T11:06:29;27.70;91.70
27848;DHT22;15212;48.830;8.730;2023-06-26T11:14:28;27.70;92.60
27848;DHT22;15212;48.830;8.730;2023-06-26T11:16:59;27.60;92.70
27848;DHT22;15212;48.830;8.730;2023-06-26T11:19:31;27.30;92.80
27848;DHT22;15212;48.830;8.730;2023-06-26T11:22:02;27.10;93.50
27848;DHT22;15212;48.830;8.730;2023-06-26T11:24:31;26.90;94.20
27848;DHT22;15212;48.830;8.730;2023-06-26T11:27:01;26.90;94.40
27848;DHT22;15212;48.830;8.730;2023-06-26T11:29:30;27.10;94.50
27848;DHT22;15212;48.830;8.730;2023-06-26T11:32:01;27.10;94.20
27848;DHT22;15212;48.830;8.730;2023-06-26T11:34:32;27.10;94.50
27848;DHT22;15212;48.830;8.730;2023-06-26T11:37:01;27.20;94.90
27848;DHT22;15212;48.830;8.730;2023-06-26T11:39:30;27.20;94.40
27848;DHT22;15212;48.830;8.730;2023-06-26T11:42:00;27.20;94.50
27848;DHT22;15212;48.830;8.730;2023-06-26T11:44:32;27.10;94.90
27848;DHT22;15212;48.830;8.730;2023-06-26T11:47:03;27.10;94.90
27848;DHT22;15212;48.830;8.730;2023-06-26T11:49:32;27.00;94.50
27848;DHT22;15212;48.830;8.730;2023-06-26T11:52:02;27.00;95.00
27848;DHT22;15212;48.830;8.730;2023-06-26T11:54:31;27.00;94.90
27848;DHT22;15212;48.830;8.730;2023-06-26T11:56:59;26.80;95.30
27848;DHT22;15212;48.830;8.730;2023-06-26T11:59:36;26.80;94.50
27848;DHT22;15212;48.830;8.730;2023-06-26T12:02:08;26.80;94.80
27848;DHT22;15212;48.830;8.730;2023-06-26T12:04:39;26.70;94.60
27848;DHT22;15212;48.830;8.730;2023-06-26T12:07:09;26.70;94.90
27848;DHT22;15212;48.830;8.730;2023-06-26T12:09:45;26.70;94.70
27848;DHT22;15212;48.830;8.730;2023-06-26T12:12:16;26.70;94.40
27848;DHT22;15212;48.830;8.730;2023-06-26T12:14:45;26.70;94.80
27848;DHT22;15212;48.830;8.730;2023-06-26T12:17:14;26.80;95.60
27848;DHT22;15212;48.830;8.730;2023-06-26T12:19:46;27.00;94.90
27848;DHT22;15212;48.830;8.730;2023-06-26T12:22:17;27.10;94.00
27848;DHT22;15212;48.830;8.730;2023-06-26T12:24:46;27.10;93.80
27848;DHT22;15212;48.830;8.730;2023-06-26T12:27:17;27.10;94.00
27848;DHT22;15212;48.830;8.730;2023-06-26T12:29:51;26.90;92.70
27848;DHT22;15212;48.830;8.730;2023-06-26T12:32:23;27.00;93.00
27848;DHT22;15212;48.830;8.730;2023-06-26T12:34:52;27.00;92.80
27848;DHT22;15212;48.830;8.730;2023-06-26T12:37:20;26.90;93.50
27848;DHT22;15212;48.830;8.730;2023-06-26T12:39:54;27.10;93.80
27848;DHT22;15212;48.830;8.730;2023-06-26T12:42:28;27.30;92.80
27848;DHT22;15212;48.830;8.730;2023-06-26T12:44:58;27.20;91.90
27848;DHT22;15212;48.830;8.730;2023-06-26T12:47:28;27.30;91.50
27848;DHT22;15212;48.830;8.730;2023-06-26T12:49:57;27.30;91.30
27848;DHT22;15212;48.830;8.730;2023-06-26T12:52:26;27.30;91.10
27848;DHT22;15212;48.830;8.730;2023-06-26T12:54:55;27.60;91.90
27848;DHT22;15212;48.830;8.730;2023-06-26T12:57:24;27.70;91.30
27848;DHT22;15212;48.830;8.730;2023-06-26T12:59:53;27.70;91.50
27848;DHT22;15212;48.830;8.730;2023-06-26T13:02:21;27.70;91.30
27848;DHT22;15212;48.830;8.730;2023-06-26T13:04:49;27.70;91.20
27848;DHT22;15212;48.830;8.730;2023-06-26T13:07:18;27.70;91.00
27848;DHT22;15212;48.830;8.730;2023-06-26T13:09:46;27.50;90.40
27848;DHT22;15212;48.830;8.730;2023-06-26T13:12:15;27.30;89.20
27848;DHT22;15212;48.830;8.730;2023-06-26T13:14:43;27.00;89.20
27848;DHT22;15212;48.830;8.730;2023-06-26T13:17:12;26.70;89.60
27848;DHT22;15212;48.830;8.730;2023-06-26T13:19:40;26.50;90.40
27848;DHT22;15212;48.830;8.730;2023-06-26T13:22:10;26.30;90.50
27848;DHT22;15212;48.830;8.730;2023-06-26T13:24:38;26.10;90.50
27848;DHT22;15212;48.830;8.730;2023-06-26T13:27:07;26.10;90.60
27848;DHT22;15212;48.830;8.730;2023-06-26T13:29:36;26.20;91.30
27848;DHT22;15212;48.830;8.730;2023-06-26T13:32:04;26.40;90.80
27848;DHT22;15212;48.830;8.730;2023-06-26T13:34:33;26.60;90.80
27848;DHT22;15212;48.830;8.730;2023-06-26T13:37:01;26.50;90.40
27848;DHT22;15212;48.830;8.730;2023-06-26T13:39:30;26.70;90.90
27848;DHT22;15212;48.830;8.730;2023-06-26T13:41:58;26.90;90.90
27848;DHT22;15212;48.830;8.730;2023-06-26T13:44:27;27.10;90.40
27848;DHT22;15212;48.830;8.730;2023-06-26T13:46:55;27.20;90.00
27848;DHT22;15212;48.830;8.730;2023-06-26T13:49:23;27.00;90.00
27848;DHT22;15212;48.830;8.730;2023-06-26T13:51:52;27.00;90.50
27848;DHT22;15212;48.830;8.730;2023-06-26T13:54:20;26.90;90.40
27848;DHT22;15212;48.830;8.730;2023-06-26T13:56:49;26.90;90.00
27848;DHT22;15212;48.830;8.730;2023-06-26T13:59:17;27.00;90.60
27848;DHT22;15212;48.830;8.730;2023-06-26T14:01:45;27.00;90.70
27848;DHT22;15212;48.830;8.730;2023-06-26T14:04:14;27.00;90.70
27848;DHT22;15212;48.830;8.730;2023-06-26T14:06:42;27.10;90.20
27848;DHT22;15212;48.830;8.730;2023-06-26T14:09:11;26.90;90.20
27848;DHT22;15212;48.830;8.730;2023-06-26T14:11:40;26.60;90.30
27848;DHT22;15212;48.830;8.730;2023-06-26T14:14:08;26.40;90.40
27848;DHT22;15212;48.830;8.730;2023-06-26T14:16:36;26.20;90.80
27848;DHT22;15212;48.830;8.730;2023-06-26T14:19:06;26.10;91.50
27848;DHT22;15212;48.830;8.730;2023-06-26T14:21:36;26.10;91.20
27848;DHT22;15212;48.830;8.730;2023-06-26T14:24:05;26.10;91.20
27848;DHT22;15212;48.830;8.730;2023-06-26T14:26:33;26.10;91.30
27848;DHT22;15212;48.830;8.730;2023-06-26T14:29:03;26.20;90.90
27848;DHT22;15212;48.830;8.730;2023-06-26T14:31:31;26.30;90.90
27848;DHT22;15212;48.830;8.730;2023-06-26T14:34:00;26.30;90.80
27848;DHT22;15212;48.830;8.730;2023-06-26T14:36:29;26.20;90.40
27848;DHT22;15212;48.830;8.730;2023-06-26T14:38:58;26.10;90.60
27848;DHT22;15212;48.830;8.730;2023-06-26T14:41:27;26.10;90.80
27848;DHT22;15212;48.830;8.730;2023-06-26T14:43:55;26.10;90.90
27848;DHT22;15212;48.830;8.730;2023-06-26T14:46:24;26.20;90.00
27848;DHT22;15212;48.830;8.730;2023-06-26T14:48:52;26.30;90.10
27848;DHT22;15212;48.830;8.730;2023-06-26T14:51:22;26.20;89.50
27848;DHT22;15212;48.830;8.730;2023-06-26T14:53:52;26.10;88.90
27848;DHT22;15212;48.830;8.730;2023-06-26T14:56:20;26.20;88.90
27848;DHT22;15212;48.830;8.730;2023-06-26T14:58:50;26.20;89.30
27848;DHT22;15212;48.830;8.730;2023-06-26T15:01:21;26.40;89.50
27848;DHT22;15212;48.830;8.730;2023-06-26T15:03:49;26.50;89.50
27848;DHT22;15212;48.830;8.730;2023-06-26T15:06:17;26.70;89.20
27848;DHT22;15212;48.830;8.730;2023-06-26T15:08:46;26.50;89.20
27848;DHT22;15212;48.830;8.730;2023-06-26T15:11:14;26.30;88.90
27848;DHT22;15212;48.830;8.730;2023-06-26T15:13:43;26.30;89.90
27848;DHT22;15212;48.830;8.730;2023-06-26T15:16:11;26.20;89.40
27848;DHT22;15212;48.830;8.730;2023-06-26T15:18:40;26.10;90.10
27848;DHT22;15212;48.830;8.730;2023-06-26T15:21:09;26.00;90.20
27848;DHT22;15212;48.830;8.730;2023-06-26T15:23:37;26.00;90.30
27848;DHT22;15212;48.830;8.730;2023-06-26T15:26:06;26.10;90.30
27848;DHT22;15212;48.830;8.730;2023-06-26T15:28:34;26.10;90.00
27848;DHT22;15212;48.830;8.730;2023-06-26T15:31:02;26.10;90.30
27848;DHT22;15212;48.830;8.730;2023-06-26T15:33:31;26.20;89.10
27848;DHT22;15212;48.830;8.730;2023-06-26T15:35:59;26.00;88.30
27848;DHT22;15212;48.830;8.730;2023-06-26T15:38:29;25.70;89.30
27848;DHT22;15212;48.830;8.730;2023-06-26T15:40:58;25.60;89.10
27848;DHT22;15212;48.830;8.730;2023-06-26T15:43:26;25.60;89.40
27848;DHT22;15212;48.830;8.730;2023-06-26T15:45:55;25.60;89.40
27848;DHT22;15212;48.830;8.730;2023-06-26T15:48:26;25.50;88.70
27848;DHT22;15212;48.830;8.730;2023-06-26T15:50:55;25.40;87.90
27848;DHT22;15212;48.830;8.730;2023-06-26T15:53:34;25.30;87.90
27848;DHT22;15212;48.830;8.730;2023-06-26T15:56:06;25.20;87.30
27848;DHT22;15212;48.830;8.730;2023-06-26T15:58:36;25.10;84.80
27848;DHT22;15212;48.830;8.730;2023-06-26T16:01:07;25.00;85.80
27848;DHT22;15212;48.830;8.730;2023-06-26T16:03:41;25.00;85.50